Time;durP1;ratioP1;P1;durP2;ratioP2;P2;SDS_P1;SDS_P2;PMS_P1;PMS_P2;Temp;Humidity;BMP_temperature;BMP_pressure;BME280_temperature;BME280_humidity;BME280_pressure;Samples;Min_cycle;Max_cycle;Signal;HPM_P1;HPM_P2
2024/03/11 00:02:00;;;;;;;17.90;13.07;;;10.20;99.90;;;;;;5009534;28;20670;-56
2024/03/11 00:04:26;;;;;;;15.73;12.60;;;10.30;99.90;;;;;;5010363;28;20677;-59
2024/03/11 00:06:52;;;;;;;16.70;12.90;;;10.20;99.90;;;;;;5009526;28;20423;-54
2024/03/11 00:09:20;;;;;;;17.10;11.97;;;10.20;99.90;;;;;;5010297;28;20905;-59
2024/03/11 00:11:55;;;;;;;13.80;11.30;;;10.20;99.90;;;;;;5009575;28;20778;-58
2024/03/11 00:14:30;;;;;;;19.33;11.50;;;10.10;99.90;;;;;;5009994;28;20530;-56
2024/03/11 00:16:57;;;;;;;14.20;11.73;;;10.10;99.90;;;;;;5005790;28;20423;-58
2024/03/11 00:19:23;;;;;;;15.67;11.43;;;10.10;99.90;;;;;;5010123;28;20466;-57
2024/03/11 00:22:07;;;;;;;15.50;12.03;;;10.20;99.90;;;;;;5006666;28;20815;-58
2024/03/11 00:24:34;;;;;;;16.63;12.83;;;10.20;99.90;;;;;;4992603;28;20426;-60
2024/03/11 00:26:59;;;;;;;14.50;12.30;;;10.10;99.90;;;;;;5010560;28;20502;-59
2024/03/11 00:29:25;;;;;;;13.90;10.97;;;10.10;99.90;;;;;;5010354;28;20443;-59
2024/03/11 00:31:51;;;;;;;17.53;12.67;;;10.10;99.90;;;;;;5010227;28;20193;-59
2024/03/11 00:34:17;;;;;;;16.33;12.00;;;10.10;99.90;;;;;;5010933;28;20200;-59
2024/03/11 00:36:44;;;;;;;17.40;11.83;;;10.10;99.90;;;;;;4996421;28;20423;-59
2024/03/11 00:39:10;;;;;;;15.83;11.73;;;10.10;99.90;;;;;;5013091;28;20185;-59
2024/03/11 00:41:36;;;;;;;16.80;11.00;;;10.10;99.90;;;;;;5012522;28;20465;-58
2024/03/11 00:44:02;;;;;;;15.47;11.17;;;10.10;99.90;;;;;;5005450;28;20467;-59
2024/03/11 00:46:29;;;;;;;17.73;12.40;;;10.10;99.90;;;;;;5014041;28;20199;-58
2024/03/11 00:48:58;;;;;;;18.20;13.13;;;10.10;99.90;;;;;;5012198;28;20239;-58
2024/03/11 00:51:24;;;;;;;15.33;11.50;;;10.10;99.90;;;;;;5005222;28;20486;-59
2024/03/11 00:53:50;;;;;;;19.17;12.40;;;10.10;99.90;;;;;;5013107;28;20486;-58
2024/03/11 00:56:16;;;;;;;18.07;12.10;;;10.10;99.90;;;;;;5013504;28;20529;-59
2024/03/11 00:58:42;;;;;;;13.87;11.27;;;10.10;99.90;;;;;;5013275;28;20188;-59
2024/03/11 01:01:10;;;;;;;15.47;11.57;;;10.00;99.90;;;;;;5013282;28;20584;-59
2024/03/11 01:03:35;;;;;;;15.67;11.60;;;10.00;99.90;;;;;;5012594;28;20662;-59
2024/03/11 01:06:01;;;;;;;16.93;12.40;;;10.00;99.90;;;;;;5013262;28;20434;-59
2024/03/11 01:08:29;;;;;;;17.63;11.37;;;10.00;99.90;;;;;;5013172;28;20362;-59
2024/03/11 01:10:58;;;;;;;15.10;11.80;;;10.00;99.90;;;;;;5004692;28;20189;-55
2024/03/11 01:13:24;;;;;;;18.23;13.33;;;9.90;99.90;;;;;;5012801;28;20455;-56
2024/03/11 01:15:50;;;;;;;13.73;10.93;;;9.80;99.90;;;;;;5012312;28;20431;-58
2024/03/11 01:18:16;;;;;;;18.27;10.93;;;9.80;99.90;;;;;;5012864;28;20196;-57
2024/03/11 01:20:43;;;;;;;16.17;12.27;;;9.70;99.90;;;;;;5012700;28;20419;-61
2024/03/11 01:23:08;;;;;;;16.77;13.13;;;9.70;99.90;;;;;;5012535;28;20461;-59
2024/03/11 01:25:34;;;;;;;13.37;11.77;;;9.60;99.90;;;;;;5012361;28;20510;-57
2024/03/11 01:28:00;;;;;;;16.40;11.23;;;9.70;99.90;;;;;;5000340;28;20670;-57
2024/03/11 01:30:27;;;;;;;14.47;11.57;;;9.60;99.90;;;;;;5013018;28;20429;-58
2024/03/11 01:32:53;;;;;;;16.87;11.60;;;9.60;99.90;;;;;;5012557;28;20443;-58
2024/03/11 01:35:19;;;;;;;18.30;11.33;;;9.60;99.90;;;;;;5012860;28;20523;-59
2024/03/11 01:37:45;;;;;;;14.53;11.03;;;9.60;99.90;;;;;;5012663;28;20208;-59
2024/03/11 01:40:15;;;;;;;16.57;11.87;;;9.60;99.90;;;;;;5013358;28;20180;-58
2024/03/11 01:42:42;;;;;;;14.20;10.47;;;9.60;99.90;;;;;;5012150;28;20461;-59
2024/03/11 01:45:08;;;;;;;15.70;11.80;;;9.50;99.90;;;;;;5012378;28;20961;-59
2024/03/11 01:47:39;;;;;;;13.87;9.90;;;9.60;99.90;;;;;;5012862;28;20916;-59
2024/03/11 01:50:09;;;;;;;17.07;11.97;;;9.60;99.90;;;;;;5012859;28;20418;-58
2024/03/11 01:52:44;;;;;;;15.20;12.37;;;9.60;99.90;;;;;;5012782;28;20456;-59
2024/03/11 01:55:11;;;;;;;21.10;12.67;;;9.60;99.90;;;;;;5012938;28;20423;-57
2024/03/11 01:57:39;;;;;;;14.53;10.43;;;9.50;99.90;;;;;;5053702;22;20495;-63
2024/03/11 02:00:08;;;;;;;16.07;10.90;;;9.50;99.90;;;;;;5052573;28;20422;-63
2024/03/11 02:02:35;;;;;;;16.63;12.07;;;9.50;99.90;;;;;;5037635;28;20853;-62
2024/03/11 02:05:01;;;;;;;14.33;11.90;;;9.60;99.90;;;;;;5042618;28;20422;-63
2024/03/11 02:07:29;;;;;;;13.97;11.33;;;9.60;99.90;;;;;;5036957;28;20494;-63
2024/03/11 02:09:54;;;;;;;17.90;12.93;;;9.60;99.90;;;;;;5014727;28;20459;-62
2024/03/11 02:12:20;;;;;;;15.53;11.33;;;9.60;99.90;;;;;;5013855;28;20452;-62
2024/03/11 02:14:46;;;;;;;14.20;10.50;;;9.60;99.90;;;;;;5016127;28;20207;-63
2024/03/11 02:17:14;;;;;;;15.80;10.77;;;9.60;99.90;;;;;;5022079;28;20266;-63
2024/03/11 02:19:40;;;;;;;15.87;10.97;;;9.60;99.90;;;;;;5022178;28;20430;-63
2024/03/11 02:22:08;;;;;;;14.10;10.77;;;9.70;99.90;;;;;;5019178;28;20419;-62
2024/03/11 02:24:38;;;;;;;23.07;13.53;;;9.70;99.90;;;;;;5018888;28;20769;-63
2024/03/11 02:27:04;;;;;;;17.90;11.40;;;9.70;99.90;;;;;;5011207;28;20473;-63
2024/03/11 02:29:30;;;;;;;16.13;10.93;;;9.70;99.90;;;;;;5022309;28;20426;-62
2024/03/11 02:31:55;;;;;;;20.10;12.37;;;9.70;99.90;;;;;;5019691;28;20517;-62
2024/03/11 02:34:21;;;;;;;14.10;10.23;;;9.70;99.90;;;;;;5018844;28;20196;-62
2024/03/11 02:36:55;;;;;;;15.97;11.80;;;9.70;99.90;;;;;;5018583;28;20296;-63
2024/03/11 02:39:21;;;;;;;14.43;11.00;;;9.70;99.90;;;;;;5016581;28;20187;-63
2024/03/11 02:41:49;;;;;;;13.70;10.57;;;9.70;99.90;;;;;;5021064;28;20841;-62
2024/03/11 02:44:15;;;;;;;16.20;10.40;;;9.80;99.90;;;;;;5018812;28;20270;-63
2024/03/11 02:46:42;;;;;;;17.50;12.50;;;9.70;99.90;;;;;;5018569;28;20443;-62
2024/03/11 02:49:08;;;;;;;16.07;10.43;;;9.70;99.90;;;;;;5020845;28;20466;-63
2024/03/11 02:51:34;;;;;;;18.83;12.40;;;9.70;99.90;;;;;;5022082;28;20180;-63
2024/03/11 02:53:59;;;;;;;13.67;10.90;;;9.70;99.90;;;;;;5019046;28;20423;-63
2024/03/11 02:56:25;;;;;;;22.20;11.97;;;9.80;99.90;;;;;;5018436;28;20600;-61
2024/03/11 02:58:50;;;;;;;14.77;10.33;;;9.70;99.90;;;;;;5018162;28;20267;-63
2024/03/11 03:01:16;;;;;;;14.60;10.23;;;9.70;99.90;;;;;;5022240;28;20187;-62
2024/03/11 03:03:43;;;;;;;15.40;11.90;;;9.70;99.90;;;;;;5022927;28;20183;-62
2024/03/11 03:06:08;;;;;;;13.80;10.97;;;9.70;99.90;;;;;;5013334;28;20427;-63
2024/03/11 03:08:35;;;;;;;12.70;10.83;;;9.70;99.90;;;;;;5015008;28;20467;-63
2024/03/11 03:11:02;;;;;;;14.60;11.20;;;9.70;99.90;;;;;;5014862;28;20184;-62
2024/03/11 03:13:29;;;;;;;14.53;11.10;;;9.70;99.90;;;;;;5011959;28;20462;-62
2024/03/11 03:15:55;;;;;;;12.63;10.97;;;9.70;99.90;;;;;;5018514;28;20443;-62
2024/03/11 03:18:21;;;;;;;16.13;10.97;;;9.70;99.90;;;;;;5012087;28;20451;-62
2024/03/11 03:20:47;;;;;;;13.10;10.17;;;9.70;99.90;;;;;;5015921;28;20846;-61
2024/03/11 03:23:13;;;;;;;14.40;11.30;;;9.70;99.90;;;;;;5022636;28;20270;-63
2024/03/11 03:25:39;;;;;;;16.67;9.40;;;9.70;99.90;;;;;;5010359;28;20807;-63
2024/03/11 03:28:05;;;;;;;13.10;9.57;;;9.70;99.90;;;;;;5017194;28;20471;-62
2024/03/11 03:30:32;;;;;;;18.97;11.60;;;9.70;99.90;;;;;;5011526;28;20180;-62
2024/03/11 03:32:59;;;;;;;13.50;10.07;;;9.70;99.90;;;;;;5011339;28;20454;-62
2024/03/11 03:35:25;;;;;;;20.93;11.13;;;9.70;99.90;;;;;;5011822;28;20527;-63
2024/03/11 03:37:51;;;;;;;14.60;11.70;;;9.70;99.90;;;;;;5012103;28;20542;-61
2024/03/11 03:40:17;;;;;;;13.47;12.00;;;9.70;99.90;;;;;;5011985;28;20427;-61
2024/03/11 03:42:47;;;;;;;17.40;11.43;;;9.70;99.90;;;;;;5010956;28;20914;-62
2024/03/11 03:45:14;;;;;;;15.10;10.93;;;9.70;99.90;;;;;;5015765;28;20212;-62
2024/03/11 03:47:40;;;;;;;14.53;11.20;;;9.70;99.90;;;;;;5023149;28;20531;-63
2024/03/11 03:50:10;;;;;;;14.60;11.27;;;9.70;99.90;;;;;;5010994;28;20418;-62
2024/03/11 03:52:39;;;;;;;17.57;11.33;;;9.70;99.90;;;;;;5011341;28;20458;-62
2024/03/11 03:55:10;;;;;;;15.10;10.07;;;9.70;99.90;;;;;;5011183;28;20426;-63
2024/03/11 03:57:35;;;;;;;13.23;11.00;;;9.70;99.90;;;;;;5011201;28;20461;-63
2024/03/11 04:00:05;;;;;;;17.13;10.23;;;9.70;99.90;;;;;;5011098;28;20784;-63
2024/03/11 04:02:31;;;;;;;16.93;10.97;;;9.70;99.90;;;;;;5011060;28;20185;-62
2024/03/11 04:04:59;;;;;;;17.03;12.07;;;9.70;99.90;;;;;;5018452;28;20464;-63
2024/03/11 04:07:25;;;;;;;14.60;10.57;;;9.70;99.90;;;;;;5017182;28;20628;-63
2024/03/11 04:09:51;;;;;;;15.57;12.73;;;9.70;99.90;;;;;;5016109;28;20987;-63
2024/03/11 04:12:19;;;;;;;19.30;12.13;;;9.70;99.90;;;;;;5017832;28;20685;-63
2024/03/11 04:14:44;;;;;;;16.03;11.60;;;9.70;99.90;;;;;;5017252;28;20428;-62
2024/03/11 04:17:12;;;;;;;15.50;11.70;;;9.70;99.90;;;;;;5024588;28;20453;-63
2024/03/11 04:19:39;;;;;;;16.97;11.40;;;9.70;99.90;;;;;;5019297;28;20180;-62
2024/03/11 04:22:04;;;;;;;16.50;10.10;;;9.70;99.90;;;;;;5031968;28;20516;-63
2024/03/11 04:24:31;;;;;;;14.97;10.80;;;9.70;99.90;;;;;;5036422;28;20607;-63
2024/03/11 04:26:59;;;;;;;14.30;10.47;;;9.70;99.90;;;;;;5036933;28;20199;-63
2024/03/11 04:29:27;;;;;;;12.30;10.73;;;9.70;99.90;;;;;;5029450;28;20784;-63
2024/03/11 04:31:53;;;;;;;14.83;12.23;;;9.70;99.90;;;;;;5031962;28;20438;-63
2024/03/11 04:34:19;;;;;;;14.20;11.27;;;9.70;99.90;;;;;;5036866;28;20437;-62
2024/03/11 04:36:45;;;;;;;14.00;11.60;;;9.70;99.90;;;;;;5035052;28;20474;-62
2024/03/11 04:39:14;;;;;;;12.27;10.97;;;9.70;99.90;;;;;;5032579;28;20833;-64
2024/03/11 04:41:42;;;;;;;14.47;11.43;;;9.70;99.90;;;;;;5035492;28;20186;-62
2024/03/11 04:44:11;;;;;;;13.43;11.00;;;9.70;99.90;;;;;;5036704;28;20779;-62
2024/03/11 04:46:38;;;;;;;14.00;11.13;;;9.70;99.90;;;;;;5036755;28;20438;-62
2024/03/11 04:49:05;;;;;;;16.03;11.80;;;9.70;99.90;;;;;;5035633;28;20867;-62
2024/03/11 04:51:32;;;;;;;13.30;10.90;;;9.70;99.90;;;;;;5033479;28;20932;-62
2024/03/11 04:53:58;;;;;;;13.63;10.67;;;9.80;99.90;;;;;;5031868;28;20425;-62
2024/03/11 04:56:23;;;;;;;12.40;10.50;;;9.80;99.90;;;;;;5029886;28;20777;-62
2024/03/11 04:58:49;;;;;;;15.40;10.30;;;9.80;99.90;;;;;;5027328;28;20434;-62
2024/03/11 05:01:16;;;;;;;14.97;11.07;;;9.80;99.90;;;;;;5020409;28;20251;-62
2024/03/11 05:03:42;;;;;;;16.53;11.77;;;9.80;99.90;;;;;;5020203;28;20246;-62
2024/03/11 05:06:10;;;;;;;13.50;9.93;;;9.80;99.90;;;;;;5026698;28;20434;-62
2024/03/11 05:08:43;;;;;;;12.23;9.73;;;9.80;99.90;;;;;;5029199;28;20517;-62
2024/03/11 05:11:13;;;;;;;19.80;10.90;;;9.80;99.90;;;;;;5032840;28;20442;-63
2024/03/11 05:13:39;;;;;;;13.27;10.80;;;9.80;99.90;;;;;;5032030;28;20428;-63
2024/03/11 05:16:10;;;;;;;14.60;11.03;;;9.80;99.90;;;;;;5017590;28;20423;-63
2024/03/11 05:18:36;;;;;;;13.87;10.93;;;9.90;99.90;;;;;;5021191;28;20503;-62
2024/03/11 05:21:09;;;;;;;14.73;11.13;;;9.90;99.90;;;;;;5015443;28;21784;-62
2024/03/11 05:23:38;;;;;;;14.20;11.40;;;9.90;99.90;;;;;;5026834;28;20509;-63
2024/03/11 05:26:06;;;;;;;13.53;10.03;;;9.90;99.90;;;;;;5022060;28;20434;-62
2024/03/11 05:28:31;;;;;;;12.90;10.50;;;9.80;99.90;;;;;;5026895;28;20466;-68
2024/03/11 05:30:58;;;;;;;11.73;10.60;;;9.80;99.90;;;;;;5020126;28;20430;-63
2024/03/11 05:33:24;;;;;;;12.63;10.77;;;9.80;99.90;;;;;;5027061;28;20689;-63
2024/03/11 05:35:53;;;;;;;12.77;10.13;;;9.80;99.90;;;;;;5021308;28;21020;-62
2024/03/11 05:38:24;;;;;;;12.47;10.50;;;9.80;99.90;;;;;;5012282;28;20447;-64
2024/03/11 05:40:49;;;;;;;15.40;10.40;;;9.80;99.90;;;;;;5026750;28;20823;-62
2024/03/11 05:43:17;;;;;;;13.30;10.13;;;9.80;99.90;;;;;;5026479;28;20419;-63
2024/03/11 05:45:47;;;;;;;13.17;11.43;;;9.80;99.90;;;;;;5028350;28;20471;-63
2024/03/11 05:48:18;;;;;;;12.33;11.03;;;9.80;99.90;;;;;;5018597;28;20992;-63
2024/03/11 05:50:45;;;;;;;14.27;10.13;;;9.80;99.90;;;;;;5027192;28;20414;-62
2024/03/11 05:53:16;;;;;;;13.27;10.73;;;9.90;99.90;;;;;;5011688;28;20806;-62
2024/03/11 05:55:43;;;;;;;15.10;10.03;;;9.90;99.90;;;;;;5029541;28;20418;-62
2024/03/11 05:58:14;;;;;;;12.30;11.00;;;9.90;99.90;;;;;;5023465;28;20532;-62
2024/03/11 06:00:46;;;;;;;14.03;11.33;;;9.90;99.90;;;;;;5018080;28;20429;-63
2024/03/11 06:03:14;;;;;;;13.83;9.90;;;9.90;99.90;;;;;;5028621;28;20553;-62
2024/03/11 06:05:43;;;;;;;13.90;10.60;;;9.90;99.90;;;;;;5029302;28;20441;-62
2024/03/11 06:08:09;;;;;;;11.27;9.87;;;9.90;99.90;;;;;;5022339;28;20961;-62
2024/03/11 06:10:38;;;;;;;14.23;12.10;;;10.00;99.90;;;;;;5031729;28;20425;-61
2024/03/11 06:13:04;;;;;;;14.10;10.13;;;10.00;99.90;;;;;;5030654;28;20418;-63
2024/03/11 06:15:30;;;;;;;15.10;10.57;;;10.00;99.90;;;;;;5028743;28;20801;-61
2024/03/11 06:17:59;;;;;;;11.03;9.00;;;10.00;99.90;;;;;;5031813;28;20953;-62
2024/03/11 06:20:28;;;;;;;13.97;10.27;;;10.00;99.90;;;;;;5041074;28;20419;-62
2024/03/11 06:22:56;;;;;;;13.33;10.00;;;10.00;99.90;;;;;;5030004;28;20545;-61
2024/03/11 06:25:23;;;;;;;14.93;12.03;;;10.00;99.90;;;;;;5031044;28;20525;-62
2024/03/11 06:27:50;;;;;;;14.63;11.27;;;10.00;99.90;;;;;;5015389;28;20469;-61
2024/03/11 06:30:19;;;;;;;13.90;10.97;;;10.00;99.90;;;;;;5028800;28;20430;-63
2024/03/11 06:32:48;;;;;;;12.03;10.80;;;10.10;99.90;;;;;;5031652;28;20472;-64
2024/03/11 06:35:20;;;;;;;15.27;11.63;;;10.10;99.90;;;;;;5030503;28;20523;-67
2024/03/11 06:37:49;;;;;;;13.20;11.17;;;10.10;99.90;;;;;;5032330;28;20482;-65
2024/03/11 06:40:21;;;;;;;128.13;65.97;;;10.10;99.90;;;;;;5032575;28;20472;-66
2024/03/11 06:42:52;;;;;;;13.60;10.80;;;10.10;99.90;;;;;;5030577;28;20434;-62
2024/03/11 06:45:18;;;;;;;15.93;11.37;;;10.20;99.90;;;;;;5031682;28;20983;-63
2024/03/11 06:47:45;;;;;;;13.80;10.80;;;10.20;99.90;;;;;;5032239;28;20466;-62
2024/03/11 06:50:13;;;;;;;15.30;12.03;;;10.20;99.90;;;;;;5031785;28;20433;-63
2024/03/11 06:52:39;;;;;;;12.43;10.83;;;10.10;99.90;;;;;;5032081;28;20427;-64
2024/03/11 06:55:10;;;;;;;13.90;12.30;;;10.20;99.90;;;;;;5030322;28;20419;-62
2024/03/11 06:57:38;;;;;;;11.40;10.20;;;10.10;99.90;;;;;;5031694;28;20515;-62
2024/03/11 07:00:17;;;;;;;13.57;10.60;;;10.20;99.90;;;;;;5031442;28;20495;-65
2024/03/11 07:02:49;;;;;;;18.30;12.20;;;10.20;99.90;;;;;;5031939;28;20545;-65
2024/03/11 07:05:15;;;;;;;12.27;10.83;;;10.20;99.90;;;;;;5032747;28;21016;-63
2024/03/11 07:07:42;;;;;;;15.53;11.67;;;10.30;99.90;;;;;;5027832;28;20470;-64
2024/03/11 07:10:12;;;;;;;15.13;11.20;;;10.30;99.90;;;;;;5031467;28;20426;-64
2024/03/11 07:12:42;;;;;;;11.83;10.57;;;10.30;99.90;;;;;;5038407;28;20418;-64
2024/03/11 07:15:09;;;;;;;13.77;11.03;;;10.30;99.90;;;;;;5029729;28;20945;-64
2024/03/11 07:17:35;;;;;;;13.70;10.30;;;10.30;99.90;;;;;;5031387;28;20442;-63
2024/03/11 07:20:07;;;;;;;15.47;11.53;;;10.30;99.90;;;;;;5031258;28;20421;-64
2024/03/11 07:22:36;;;;;;;12.53;11.27;;;10.30;99.90;;;;;;5031092;28;20422;-64
2024/03/11 07:25:03;;;;;;;15.73;10.27;;;10.30;99.90;;;;;;5030761;28;20418;-62
2024/03/11 07:27:29;;;;;;;12.80;11.20;;;10.40;99.90;;;;;;5013516;28;20458;-63
2024/03/11 07:29:58;;;;;;;13.47;11.03;;;10.50;99.90;;;;;;5029644;28;20414;-63
2024/03/11 07:32:25;;;;;;;55.07;34.87;;;10.60;99.90;;;;;;5031251;28;20433;-64
2024/03/11 07:34:51;;;;;;;13.17;11.80;;;11.00;99.90;;;;;;5030951;28;20529;-63
2024/03/11 07:37:19;;;;;;;15.43;10.23;;;10.90;99.90;;;;;;5029939;28;21027;-62
2024/03/11 07:39:47;;;;;;;13.97;11.23;;;10.80;99.90;;;;;;5023449;28;20442;-62
2024/03/11 07:42:13;;;;;;;12.63;10.67;;;10.70;99.90;;;;;;5031421;28;20411;-63
2024/03/11 07:44:41;;;;;;;12.20;10.87;;;10.80;99.90;;;;;;5013451;28;20477;-62
2024/03/11 07:47:09;;;;;;;12.63;11.33;;;10.80;99.90;;;;;;5029406;28;20212;-63
2024/03/11 07:49:40;;;;;;;104.40;55.50;;;10.80;99.90;;;;;;5024641;28;20422;-63
2024/03/11 07:52:06;;;;;;;17.03;13.03;;;11.00;99.90;;;;;;5030945;28;20417;-62
2024/03/11 07:54:32;;;;;;;14.17;10.50;;;11.30;99.90;;;;;;5031518;28;20500;-63
2024/03/11 07:56:58;;;;;;;15.93;12.13;;;11.00;99.90;;;;;;5030586;28;20460;-62
2024/03/11 07:59:26;;;;;;;13.57;10.30;;;10.90;99.90;;;;;;5031086;28;20418;-62
2024/03/11 08:01:52;;;;;;;15.23;12.03;;;10.90;99.90;;;;;;5027521;28;20217;-63
2024/03/11 08:04:18;;;;;;;13.70;10.93;;;10.80;99.90;;;;;;5030966;28;20430;-63
2024/03/11 08:06:44;;;;;;;13.80;10.73;;;10.80;99.90;;;;;;5013521;28;20470;-62
2024/03/11 08:09:14;;;;;;;14.10;11.27;;;10.80;99.90;;;;;;5031045;28;20203;-63
2024/03/11 08:11:40;;;;;;;12.60;11.03;;;10.80;99.90;;;;;;5025914;28;20548;-63
2024/03/11 08:14:05;;;;;;;13.43;10.83;;;10.80;99.90;;;;;;5028056;28;20414;-63
2024/03/11 08:16:33;;;;;;;13.43;11.67;;;10.80;99.90;;;;;;5020482;28;20191;-63
2024/03/11 08:18:59;;;;;;;14.47;11.70;;;10.90;99.90;;;;;;5029918;28;20187;-62
2024/03/11 08:21:27;;;;;;;13.47;10.33;;;10.80;99.90;;;;;;5013511;28;20458;-64
2024/03/11 08:23:54;;;;;;;14.33;10.13;;;10.80;99.90;;;;;;4997689;28;20584;-62
2024/03/11 08:26:22;;;;;;;12.10;10.80;;;10.80;99.90;;;;;;5039006;28;20546;-62
2024/03/11 08:28:47;;;;;;;13.80;11.53;;;10.90;99.90;;;;;;5030722;28;20481;-62
2024/03/11 08:31:13;;;;;;;14.17;10.97;;;10.90;99.90;;;;;;5029185;28;20426;-63
2024/03/11 08:33:41;;;;;;;12.80;11.00;;;10.90;99.90;;;;;;5031030;28;20251;-62
2024/03/11 08:36:07;;;;;;;14.73;12.03;;;11.00;99.90;;;;;;5030908;28;20178;-63
2024/03/11 08:38:35;;;;;;;16.20;11.30;;;11.10;99.90;;;;;;5031111;28;20948;-63
2024/03/11 08:41:06;;;;;;;14.80;11.50;;;11.10;99.90;;;;;;5030369;28;20430;-62
2024/03/11 08:43:35;;;;;;;14.23;10.83;;;11.10;99.90;;;;;;5034951;28;20427;-63
2024/03/11 08:46:01;;;;;;;14.80;11.83;;;11.30;99.90;;;;;;5027691;28;20480;-60
2024/03/11 08:48:30;;;;;;;15.70;11.13;;;11.50;99.90;;;;;;5029545;28;20834;-63
2024/03/11 08:50:57;;;;;;;14.43;11.03;;;11.40;99.90;;;;;;5030587;28;20208;-63
2024/03/11 08:53:24;;;;;;;16.27;11.80;;;11.50;99.90;;;;;;5013501;28;20936;-61
2024/03/11 08:55:50;;;;;;;12.60;10.73;;;11.50;99.90;;;;;;5032670;28;20424;-63
2024/03/11 08:58:16;;;;;;;19.60;10.77;;;11.50;99.90;;;;;;5034581;28;21132;-63
2024/03/11 09:00:42;;;;;;;13.90;11.70;;;11.40;99.90;;;;;;5034713;28;20290;-64
2024/03/11 09:03:11;;;;;;;17.33;11.53;;;11.50;99.90;;;;;;5030848;28;20441;-62
2024/03/11 09:05:40;;;;;;;16.13;11.07;;;11.60;99.90;;;;;;5032791;28;20935;-62
2024/03/11 09:08:10;;;;;;;16.00;12.37;;;11.60;99.90;;;;;;5034336;28;21014;-63
2024/03/11 09:10:39;;;;;;;13.80;11.90;;;11.70;99.90;;;;;;5024743;28;20890;-63
2024/03/11 09:13:07;;;;;;;18.83;14.23;;;11.80;99.90;;;;;;5030830;28;20901;-62
2024/03/11 09:15:38;;;;;;;20.73;13.77;;;12.00;99.90;;;;;;5032361;28;20517;-62
2024/03/11 09:18:04;;;;;;;19.07;13.77;;;12.00;99.90;;;;;;5033547;28;20446;-68
2024/03/11 09:20:31;;;;;;;19.97;15.47;;;12.00;99.90;;;;;;5034005;28;20422;-63
2024/03/11 09:22:57;;;;;;;21.73;15.87;;;12.10;99.90;;;;;;5033562;28;20417;-62
2024/03/11 09:25:30;;;;;;;19.90;16.80;;;12.20;99.90;;;;;;5034054;28;20413;-62
2024/03/11 09:28:01;;;;;;;19.90;16.27;;;12.30;99.90;;;;;;5031917;28;20994;-63
2024/03/11 09:30:35;;;;;;;23.40;17.20;;;12.20;99.90;;;;;;5035738;28;20419;-62
2024/03/11 09:33:06;;;;;;;20.80;16.80;;;12.20;99.90;;;;;;5031261;28;20444;-62
2024/03/11 09:35:32;;;;;;;19.20;17.17;;;12.00;99.90;;;;;;5023629;28;20441;-64
2024/03/11 09:37:58;;;;;;;24.23;19.00;;;12.20;99.90;;;;;;5029236;28;20455;-63
2024/03/11 09:40:26;;;;;;;21.70;17.10;;;12.30;99.90;;;;;;5032215;28;20665;-65
2024/03/11 09:42:54;;;;;;;22.00;17.63;;;12.20;99.90;;;;;;5033411;28;20831;-63
2024/03/11 09:45:22;;;;;;;21.87;17.63;;;12.20;99.90;;;;;;5032494;28;20423;-63
2024/03/11 09:47:53;;;;;;;19.57;17.50;;;12.40;99.90;;;;;;5033059;28;20504;-64
2024/03/11 09:50:27;;;;;;;24.73;19.10;;;12.40;99.90;;;;;;5027973;28;20427;-63
2024/03/11 09:53:03;;;;;;;24.20;19.60;;;12.50;99.90;;;;;;5014996;28;20841;-63
2024/03/11 09:55:30;;;;;;;23.87;19.93;;;12.40;99.90;;;;;;5024788;28;20423;-64
2024/03/11 09:58:02;;;;;;;23.40;20.03;;;12.30;99.90;;;;;;5032935;28;20478;-64
2024/03/11 10:00:29;;;;;;;26.53;19.47;;;12.40;99.90;;;;;;5032074;28;20425;-62
2024/03/11 10:03:04;;;;;;;25.43;18.77;;;12.50;99.90;;;;;;5032955;28;21027;-62
2024/03/11 10:05:34;;;;;;;22.57;17.13;;;12.70;99.90;;;;;;5032372;28;20414;-62
2024/03/11 10:08:01;;;;;;;23.93;19.30;;;12.60;99.90;;;;;;5031675;28;20472;-64
2024/03/11 10:10:32;;;;;;;22.60;16.53;;;12.70;99.90;;;;;;5035232;28;20414;-63
2024/03/11 10:12:58;;;;;;;21.13;17.60;;;12.80;99.90;;;;;;5034719;28;20493;-66
2024/03/11 10:15:30;;;;;;;21.57;19.20;;;12.60;99.90;;;;;;5030705;28;20430;-62
2024/03/11 10:18:27;;;;;;;21.13;17.00;;;12.70;99.90;;;;;;5032232;28;20426;-62
2024/03/11 10:20:59;;;;;;;26.10;19.43;;;12.70;99.90;;;;;;5031676;28;20427;-61
2024/03/11 10:23:26;;;;;;;20.33;18.23;;;12.80;99.90;;;;;;5032254;28;20488;-64
2024/03/11 10:26:17;;;;;;;20.87;17.77;;;12.70;99.90;;;;;;5031936;28;20877;-62
2024/03/11 10:28:48;;;;;;;24.93;18.43;;;13.00;99.90;;;;;;5022499;28;20459;-62
2024/03/11 10:31:24;;;;;;;22.30;18.27;;;13.20;99.90;;;;;;5024719;28;20789;-62
2024/03/11 10:34:03;;;;;;;19.90;16.40;;;13.50;99.90;;;;;;5029187;28;20420;-67
2024/03/11 10:36:31;;;;;;;20.33;17.00;;;13.80;99.90;;;;;;5031858;28;20416;-62
2024/03/11 10:39:17;;;;;;;17.47;15.47;;;13.60;99.90;;;;;;5032470;28;20931;-65
2024/03/11 10:41:43;;;;;;;18.10;16.23;;;13.50;99.90;;;;;;5031165;28;20511;-63
2024/03/11 10:44:15;;;;;;;22.17;18.00;;;13.50;99.90;;;;;;5028647;28;20542;-62
2024/03/11 10:46:42;;;;;;;18.53;15.53;;;13.80;99.90;;;;;;5031429;28;20424;-63
2024/03/11 10:49:18;;;;;;;20.17;18.00;;;13.80;99.90;;;;;;5031462;28;20468;-63
2024/03/11 10:51:49;;;;;;;19.13;15.70;;;13.70;99.90;;;;;;5023723;28;20415;-62
2024/03/11 10:54:38;;;;;;;18.03;16.13;;;13.80;99.90;;;;;;5013518;28;20843;-63
2024/03/11 10:57:14;;;;;;;21.83;17.23;;;14.00;99.90;;;;;;5013453;28;20521;-62
2024/03/11 10:59:47;;;;;;;21.73;17.70;;;13.70;99.90;;;;;;5024257;28;20454;-62
2024/03/11 11:02:24;;;;;;;20.20;16.80;;;13.90;99.90;;;;;;5030806;28;20448;-63
2024/03/11 11:04:53;;;;;;;17.93;15.73;;;14.00;99.90;;;;;;5023823;28;20426;-63
2024/03/11 11:07:30;;;;;;;21.53;16.70;;;14.00;99.90;;;;;;5030670;28;20444;-63
2024/03/11 11:10:01;;;;;;;18.43;16.40;;;14.10;99.90;;;;;;5031328;28;20564;-62
2024/03/11 11:12:36;;;;;;;20.00;16.27;;;13.90;99.90;;;;;;5031376;28;20429;-63
2024/03/11 11:15:07;;;;;;;19.37;17.13;;;13.90;99.90;;;;;;5030670;28;20930;-62
2024/03/11 11:17:42;;;;;;;20.70;17.63;;;13.90;99.90;;;;;;5030858;28;20519;-63
2024/03/11 11:20:30;;;;;;;20.40;16.37;;;13.90;99.90;;;;;;5015213;28;20786;-63
2024/03/11 11:23:00;;;;;;;22.33;19.17;;;13.90;99.90;;;;;;5027448;28;20499;-62
2024/03/11 11:25:33;;;;;;;20.77;18.50;;;14.20;99.90;;;;;;5031199;28;20422;-63
2024/03/11 11:27:59;;;;;;;16.97;15.23;;;14.30;99.90;;;;;;5030598;28;20473;-62
2024/03/11 11:30:28;;;;;;;19.97;16.67;;;14.10;99.90;;;;;;5030333;28;20511;-64
2024/03/11 11:32:55;;;;;;;17.50;15.70;;;14.00;99.90;;;;;;5029620;28;20181;-63
2024/03/11 11:35:44;;;;;;;19.00;16.40;;;14.00;99.90;;;;;;5030301;28;20425;-63
2024/03/11 11:38:27;;;;;;;25.70;16.23;;;14.60;99.90;;;;;;5030483;28;20442;-62
2024/03/11 11:40:53;;;;;;;16.77;15.07;;;14.50;99.90;;;;;;5002329;28;20431;-62
2024/03/11 11:43:41;;;;;;;16.13;14.40;;;14.60;99.90;;;;;;5029877;28;20441;-63
2024/03/11 11:46:09;;;;;;;17.63;15.83;;;14.70;99.90;;;;;;5028740;28;20186;-62
2024/03/11 11:48:40;;;;;;;17.80;15.60;;;14.60;99.90;;;;;;5028857;28;20990;-62
2024/03/11 11:51:08;;;;;;;18.80;15.43;;;14.50;99.90;;;;;;5026685;28;20418;-62
2024/03/11 11:53:36;;;;;;;20.70;15.80;;;14.30;99.90;;;;;;5029791;28;20446;-63
2024/03/11 11:56:04;;;;;;;17.50;14.63;;;14.30;99.90;;;;;;5030338;28;20911;-63
2024/03/11 11:58:32;;;;;;;17.00;15.30;;;14.20;99.90;;;;;;5022015;28;20499;-63
2024/03/11 12:01:01;;;;;;;15.73;14.07;;;14.20;99.90;;;;;;5029765;28;20455;-62
2024/03/11 12:03:36;;;;;;;18.30;14.93;;;14.00;99.90;;;;;;5028374;28;20414;-62
2024/03/11 12:06:04;;;;;;;16.43;14.63;;;13.90;99.90;;;;;;5028268;28;20428;-63
2024/03/11 12:08:33;;;;;;;16.07;12.23;;;14.10;99.90;;;;;;5029199;28;20463;-63
2024/03/11 12:11:10;;;;;;;15.37;13.30;;;14.00;99.90;;;;;;5030661;28;20416;-63
2024/03/11 12:13:41;;;;;;;15.83;13.37;;;13.90;99.90;;;;;;5021596;28;20481;-63
2024/03/11 12:16:13;;;;;;;17.17;12.63;;;14.00;99.90;;;;;;5028844;28;20433;-63
2024/03/11 12:18:42;;;;;;;16.13;12.80;;;14.10;99.90;;;;;;5005096;28;20940;-63
2024/03/11 12:21:11;;;;;;;12.50;10.13;;;14.10;99.90;;;;;;5029817;28;20421;-61
2024/03/11 12:23:38;;;;;;;15.73;11.80;;;14.20;99.90;;;;;;5027469;28;20478;-60
2024/03/11 12:26:09;;;;;;;13.90;11.07;;;14.30;99.90;;;;;;5029851;28;20444;-62
2024/03/11 12:28:43;;;;;;;15.13;12.03;;;14.70;99.90;;;;;;5030001;28;20468;-62
2024/03/11 12:31:15;;;;;;;12.20;10.97;;;14.80;99.90;;;;;;5028552;28;20448;-61
2024/03/11 12:33:44;;;;;;;12.43;11.03;;;14.90;99.90;;;;;;5030222;28;20425;-61
2024/03/11 12:36:13;;;;;;;12.60;10.80;;;14.80;99.90;;;;;;5035005;28;20418;-60
2024/03/11 12:38:42;;;;;;;13.60;11.40;;;14.80;99.90;;;;;;5032933;28;20465;-63